Time;durP1;ratioP1;P1;durP2;ratioP2;P2;SDS_P1;SDS_P2;PMS_P1;PMS_P2;Temp;Humidity;BMP_temperature;BMP_pressure;BME280_temperature;BME280_humidity;BME280_pressure;Samples;Min_cycle;Max_cycle;Signal;HPM_P1;HPM_P2
2023/07/09 00:01:34;;;;;;;4.90;2.80;;;;;;;;;;10500846;28;20062;-73
2023/07/09 00:06:34;;;;;;;6.40;2.53;;;;;;;;;;10500860;28;20330;-73
2023/07/09 00:11:35;;;;;;;12.15;2.47;;;;;;;;;;10500810;28;20062;-73
2023/07/09 00:16:36;;;;;;;5.78;2.70;;;;;;;;;;10500396;28;20184;-73
2023/07/09 00:21:37;;;;;;;9.25;2.72;;;;;;;;;;10500415;28;20163;-73
2023/07/09 00:26:38;;;;;;;9.23;2.40;;;;;;;;;;10500353;28;20040;-73
2023/07/09 00:31:40;;;;;;;9.23;3.35;;;;;;;;;;10500258;28;20161;-73
2023/07/09 00:36:44;;;;;;;4.03;2.60;;;;;;;;;;10500211;28;20099;-73
2023/07/09 00:41:48;;;;;;;7.40;2.55;;;;;;;;;;10500235;28;20621;-74
2023/07/09 00:46:48;;;;;;;8.02;2.65;;;;;;;;;;10500040;28;20028;-74
2023/07/09 00:51:48;;;;;;;3.40;2.33;;;;;;;;;;10499773;28;20048;-72
2023/07/09 00:56:51;;;;;;;6.60;3.00;;;;;;;;;;10500450;28;20220;-73
2023/07/09 01:01:52;;;;;;;7.32;3.15;;;;;;;;;;10505870;28;20016;-74
2023/07/09 01:06:54;;;;;;;5.97;2.28;;;;;;;;;;10508461;28;20021;-74
2023/07/09 01:11:56;;;;;;;11.93;3.05;;;;;;;;;;10508034;28;20310;-74
2023/07/09 01:16:58;;;;;;;5.70;2.63;;;;;;;;;;10513107;28;20028;-74
2023/07/09 01:21:59;;;;;;;7.35;2.40;;;;;;;;;;10507888;28;20024;-74
2023/07/09 01:27:01;;;;;;;5.65;2.70;;;;;;;;;;10505840;28;20017;-74
2023/07/09 01:32:03;;;;;;;7.40;3.20;;;;;;;;;;10507463;28;20282;-74
2023/07/09 01:37:03;;;;;;;7.78;4.30;;;;;;;;;;10507056;28;20025;-74
2023/07/09 01:42:06;;;;;;;5.72;2.85;;;;;;;;;;10506765;28;20009;-74
2023/07/09 01:47:06;;;;;;;8.27;2.78;;;;;;;;;;10509135;28;20287;-73
2023/07/09 01:52:08;;;;;;;5.80;2.53;;;;;;;;;;10506410;28;20048;-72
2023/07/09 01:57:13;;;;;;;8.80;3.30;;;;;;;;;;10505893;28;20318;-73
2023/07/09 02:02:18;;;;;;;10.60;3.75;;;;;;;;;;10506050;28;20126;-73
2023/07/09 02:07:19;;;;;;;6.60;3.72;;;;;;;;;;10506076;28;20039;-72
2023/07/09 02:12:19;;;;;;;5.05;3.40;;;;;;;;;;10505164;28;20043;-73
2023/07/09 02:17:20;;;;;;;5.43;3.55;;;;;;;;;;10505598;28;20109;-72
2023/07/09 02:22:20;;;;;;;10.48;3.75;;;;;;;;;;10505527;28;20047;-73
2023/07/09 02:27:21;;;;;;;6.93;3.73;;;;;;;;;;10505963;28;20089;-73
2023/07/09 02:32:23;;;;;;;5.97;3.45;;;;;;;;;;10505437;28;20023;-73
2023/07/09 02:37:24;;;;;;;5.50;3.58;;;;;;;;;;10504722;28;20016;-73
2023/07/09 02:42:24;;;;;;;5.50;3.70;;;;;;;;;;10504719;28;20016;-73
2023/07/09 02:47:24;;;;;;;6.80;3.88;;;;;;;;;;10504337;28;20024;-74
2023/07/09 02:52:26;;;;;;;6.68;3.83;;;;;;;;;;10502636;28;20041;-74
2023/07/09 02:57:26;;;;;;;13.45;5.65;;;;;;;;;;10504816;28;20012;-74
2023/07/09 03:02:27;;;;;;;9.73;5.10;;;;;;;;;;10504446;28;20471;-72
2023/07/09 03:07:27;;;;;;;12.23;5.03;;;;;;;;;;10503296;28;20017;-74
2023/07/09 03:12:27;;;;;;;9.10;4.80;;;;;;;;;;10504072;28;20084;-74
2023/07/09 03:17:27;;;;;;;6.93;4.35;;;;;;;;;;10503081;28;20012;-74
2023/07/09 03:22:28;;;;;;;9.88;4.50;;;;;;;;;;10500423;28;20214;-74
2023/07/09 03:27:28;;;;;;;9.38;4.68;;;;;;;;;;10502819;28;20028;-73
2023/07/09 03:32:28;;;;;;;7.32;4.60;;;;;;;;;;10502553;28;20020;-74
2023/07/09 03:37:29;;;;;;;9.88;4.63;;;;;;;;;;10501041;28;20274;-73
2023/07/09 03:42:29;;;;;;;6.50;5.13;;;;;;;;;;10502012;28;20012;-73
2023/07/09 03:47:29;;;;;;;12.73;4.75;;;;;;;;;;10502606;28;20329;-74
2023/07/09 03:52:29;;;;;;;8.20;4.22;;;;;;;;;;10502463;28;20348;-74
2023/07/09 03:57:30;;;;;;;10.32;4.35;;;;;;;;;;10501495;28;20029;-74
2023/07/09 04:02:31;;;;;;;7.00;4.10;;;;;;;;;;10501436;28;20067;-74
2023/07/09 04:07:31;;;;;;;4.60;3.53;;;;;;;;;;10501045;28;20332;-74
2023/07/09 04:12:31;;;;;;;6.53;4.00;;;;;;;;;;10500743;28;20028;-74
2023/07/09 04:17:32;;;;;;;8.47;4.00;;;;;;;;;;10500840;28;20052;-73
2023/07/09 04:22:32;;;;;;;9.27;4.67;;;;;;;;;;10500857;28;20258;-74
2023/07/09 04:27:33;;;;;;;15.03;4.77;;;;;;;;;;10500730;28;20489;-74
2023/07/09 04:32:34;;;;;;;12.07;4.68;;;;;;;;;;10506369;28;20024;-74
2023/07/09 04:37:34;;;;;;;8.73;3.55;;;;;;;;;;10499978;28;20354;-73
2023/07/09 04:42:34;;;;;;;9.63;4.67;;;;;;;;;;10499891;28;20008;-73
2023/07/09 04:47:34;;;;;;;9.32;3.88;;;;;;;;;;10498888;28;20226;-73
2023/07/09 04:52:35;;;;;;;9.73;5.07;;;;;;;;;;10499677;28;20108;-73
2023/07/09 04:57:35;;;;;;;8.73;4.50;;;;;;;;;;10498500;28;20138;-74
2023/07/09 05:02:35;;;;;;;6.75;4.68;;;;;;;;;;10499548;28;20270;-73
2023/07/09 05:07:36;;;;;;;16.50;4.20;;;;;;;;;;10499722;28;20095;-74
2023/07/09 05:12:46;;;;;;;14.85;5.20;;;;;;;;;;10499591;28;20178;-73
2023/07/09 05:17:46;;;;;;;10.90;4.60;;;;;;;;;;10498136;28;20306;-74
2023/07/09 05:22:46;;;;;;;14.00;3.87;;;;;;;;;;10499419;28;20024;-74
2023/07/09 05:27:47;;;;;;;11.75;3.63;;;;;;;;;;10498815;28;20091;-73
2023/07/09 05:32:47;;;;;;;9.50;3.40;;;;;;;;;;10499412;28;20055;-73
2023/07/09 05:37:48;;;;;;;5.05;3.30;;;;;;;;;;10497849;28;20020;-74
2023/07/09 05:42:48;;;;;;;6.82;3.65;;;;;;;;;;10498934;28;20024;-72
2023/07/09 05:47:49;;;;;;;9.80;3.70;;;;;;;;;;10502901;28;20206;-74
2023/07/09 05:52:49;;;;;;;8.88;3.17;;;;;;;;;;10506429;28;20036;-74
2023/07/09 05:57:50;;;;;;;8.25;3.35;;;;;;;;;;10505075;28;20337;-73
2023/07/09 06:02:50;;;;;;;9.43;3.53;;;;;;;;;;10505857;28;20016;-72
2023/07/09 06:07:50;;;;;;;5.28;3.05;;;;;;;;;;10505896;28;20056;-74
2023/07/09 06:12:51;;;;;;;5.85;2.80;;;;;;;;;;10505687;28;20044;-73
2023/07/09 06:17:51;;;;;;;6.38;2.80;;;;;;;;;;10505485;28;20021;-73
2023/07/09 06:22:51;;;;;;;22.77;4.17;;;;;;;;;;10503853;28;20013;-73
2023/07/09 06:27:51;;;;;;;13.18;2.90;;;;;;;;;;10505044;28;20224;-74
2023/07/09 06:32:52;;;;;;;10.73;2.78;;;;;;;;;;10503520;28;20103;-74
2023/07/09 06:37:52;;;;;;;9.20;2.88;;;;;;;;;;10504534;28;20195;-73
2023/07/09 06:42:52;;;;;;;5.20;2.75;;;;;;;;;;10504664;28;20009;-73
2023/07/09 06:47:53;;;;;;;4.03;2.27;;;;;;;;;;10504226;28;20051;-73
2023/07/09 06:52:53;;;;;;;9.88;2.90;;;;;;;;;;10502759;28;20044;-73
2023/07/09 06:57:53;;;;;;;3.00;2.20;;;;;;;;;;10503917;28;20079;-74
2023/07/09 07:02:53;;;;;;;8.10;2.77;;;;;;;;;;10503169;28;20206;-74
2023/07/09 07:07:54;;;;;;;10.73;2.55;;;;;;;;;;10503287;28;20225;-72
2023/07/09 07:12:55;;;;;;;5.43;2.40;;;;;;;;;;10503294;28;20028;-74
2023/07/09 07:17:55;;;;;;;6.93;2.53;;;;;;;;;;10503116;28;20328;-73
2023/07/09 07:22:56;;;;;;;4.97;2.20;;;;;;;;;;10501833;28;20210;-73
2023/07/09 07:27:56;;;;;;;5.45;2.00;;;;;;;;;;10501881;28;20016;-72
2023/07/09 07:32:56;;;;;;;5.00;1.90;;;;;;;;;;10501344;28;20016;-73
2023/07/09 07:37:57;;;;;;;5.63;1.95;;;;;;;;;;10500956;28;20362;-72
2023/07/09 07:42:57;;;;;;;5.13;1.95;;;;;;;;;;10501029;28;20326;-73
2023/07/09 07:47:58;;;;;;;5.57;2.25;;;;;;;;;;10502097;28;20042;-73
2023/07/09 07:52:58;;;;;;;9.85;3.58;;;;;;;;;;10501434;28;20078;-73
2023/07/09 07:57:59;;;;;;;3.15;2.38;;;;;;;;;;10501119;28;20063;-74
2023/07/09 08:03:00;;;;;;;3.30;1.88;;;;;;;;;;10501042;28;20310;-72
2023/07/09 08:08:00;;;;;;;9.82;1.92;;;;;;;;;;10500628;28;20024;-73
2023/07/09 08:13:00;;;;;;;5.72;1.88;;;;;;;;;;10500768;28;20013;-71
2023/07/09 08:18:01;;;;;;;6.72;1.90;;;;;;;;;;10499783;28;20372;-72
2023/07/09 08:23:01;;;;;;;9.03;2.00;;;;;;;;;;10500685;28;20405;-73
2023/07/09 08:28:02;;;;;;;3.65;1.70;;;;;;;;;;10499091;28;20616;-73
2023/07/09 08:33:02;;;;;;;5.10;1.88;;;;;;;;;;10498982;28;20048;-73
2023/07/09 08:38:03;;;;;;;9.53;2.10;;;;;;;;;;10500099;28;20310;-73
2023/07/09 08:43:10;;;;;;;6.55;1.80;;;;;;;;;;10504433;28;20021;-73
2023/07/09 08:48:18;;;;;;;6.72;2.58;;;;;;;;;;10500096;28;20092;-73
2023/07/09 08:53:21;;;;;;;7.38;2.10;;;;;;;;;;10499966;28;20265;-73
2023/07/09 08:58:24;;;;;;;3.88;1.95;;;;;;;;;;10499922;28;20310;-73
2023/07/09 09:03:24;;;;;;;3.80;2.10;;;;;;;;;;10500356;28;20295;-73
2023/07/09 09:08:43;;;;;;;5.25;2.00;;;;;;;;;;10499570;28;20043;-73
2023/07/09 09:13:44;;;;;;;7.13;2.17;;;;;;;;;;10499594;28;20079;-73
2023/07/09 09:18:45;;;;;;;6.07;1.80;;;;;;;;;;10499314;28;20557;-72
2023/07/09 09:23:52;;;;;;;4.22;2.10;;;;;;;;;;10505349;28;20387;-74
2023/07/09 09:28:52;;;;;;;3.60;1.60;;;;;;;;;;10507205;28;20341;-74
2023/07/09 09:33:52;;;;;;;5.18;2.20;;;;;;;;;;10506352;28;20047;-73
2023/07/09 09:38:53;;;;;;;2.22;1.88;;;;;;;;;;10505876;28;20020;-72
2023/07/09 09:43:57;;;;;;;4.13;2.20;;;;;;;;;;10505631;28;20029;-71
2023/07/09 09:49:01;;;;;;;3.85;1.95;;;;;;;;;;10507218;28;20024;-73
2023/07/09 09:54:01;;;;;;;5.37;1.97;;;;;;;;;;10506193;28;20044;-72
2023/07/09 09:59:03;;;;;;;2.72;1.83;;;;;;;;;;10505932;28;20024;-73
2023/07/09 10:04:05;;;;;;;3.33;1.92;;;;;;;;;;10504788;28;20379;-73
2023/07/09 10:09:31;;;;;;;4.68;2.17;;;;;;;;;;10505285;28;20318;-71
2023/07/09 10:14:42;;;;;;;5.40;1.95;;;;;;;;;;10502711;28;20340;-72
2023/07/09 10:19:51;;;;;;;3.80;2.00;;;;;;;;;;10505395;28;20019;-72
2023/07/09 10:25:17;;;;;;;4.75;1.90;;;;;;;;;;10505355;28;20195;-72
2023/07/09 10:30:18;;;;;;;5.55;2.00;;;;;;;;;;10481459;28;20276;-72
2023/07/09 10:35:23;;;;;;;3.70;1.70;;;;;;;;;;10504146;28;20058;-73
2023/07/09 10:40:29;;;;;;;5.38;2.00;;;;;;;;;;10504318;28;20040;-73
2023/07/09 10:45:38;;;;;;;5.55;2.50;;;;;;;;;;10504533;28;20051;-73
2023/07/09 10:50:44;;;;;;;5.35;2.10;;;;;;;;;;10504263;28;20028;-74
2023/07/09 10:55:56;;;;;;;3.58;1.67;;;;;;;;;;10503387;28;20346;-73
2023/07/09 11:00:57;;;;;;;2.35;1.67;;;;;;;;;;10502488;28;20334;-73
2023/07/09 11:05:57;;;;;;;5.20;1.88;;;;;;;;;;10503340;28;20082;-73
2023/07/09 11:10:59;;;;;;;4.33;2.00;;;;;;;;;;10503478;28;20202;-72
2023/07/09 11:16:00;;;;;;;5.22;2.33;;;;;;;;;;10503053;28;20017;-73
2023/07/09 11:21:08;;;;;;;3.70;2.30;;;;;;;;;;10503315;28;20222;-72
2023/07/09 11:26:35;;;;;;;4.70;2.13;;;;;;;;;;10502471;28;20028;-73
2023/07/09 11:31:35;;;;;;;2.90;2.13;;;;;;;;;;10499579;28;20055;-73
2023/07/09 11:36:46;;;;;;;4.80;2.77;;;;;;;;;;10502395;28;20349;-73
2023/07/09 11:41:47;;;;;;;4.90;2.58;;;;;;;;;;10502195;28;20073;-74
2023/07/09 11:46:54;;;;;;;4.10;2.60;;;;;;;;;;10500866;28;20020;-73
2023/07/09 11:51:57;;;;;;;4.05;2.42;;;;;;;;;;10502132;28;20230;-72
2023/07/09 11:57:01;;;;;;;8.30;2.85;;;;;;;;;;10500206;28;20044;-74
2023/07/09 12:02:03;;;;;;;3.90;2.40;;;;;;;;;;10501488;28;20020;-72
2023/07/09 12:07:05;;;;;;;3.60;2.30;;;;;;;;;;10501112;28;20289;-73
2023/07/09 12:12:16;;;;;;;5.95;2.75;;;;;;;;;;10500804;28;20213;-74
2023/07/09 12:17:16;;;;;;;8.70;3.00;;;;;;;;;;10500656;28;20051;-72
2023/07/09 12:22:18;;;;;;;6.30;2.23;;;;;;;;;;10500702;28;20025;-73
2023/07/09 12:27:37;;;;;;;7.45;2.70;;;;;;;;;;10500645;28;20084;-72
2023/07/09 12:32:49;;;;;;;5.22;2.75;;;;;;;;;;10495962;28;20045;-73
2023/07/09 12:37:56;;;;;;;7.18;2.53;;;;;;;;;;10500540;28;20269;-73
2023/07/09 12:42:57;;;;;;;6.78;2.35;;;;;;;;;;10503497;28;20187;-73
2023/07/09 12:47:58;;;;;;;5.38;2.80;;;;;;;;;;10500841;28;20027;-73
2023/07/09 12:53:03;;;;;;;4.18;2.40;;;;;;;;;;10499650;28;20107;-72
2023/07/09 12:58:11;;;;;;;9.05;2.80;;;;;;;;;;10499602;28;20340;-72
2023/07/09 13:03:13;;;;;;;4.53;2.60;;;;;;;;;;10499653;28;20024;-72
2023/07/09 13:08:13;;;;;;;4.20;2.42;;;;;;;;;;10500324;28;20202;-72
2023/07/09 13:13:14;;;;;;;11.80;2.60;;;;;;;;;;10499456;28;20032;-73
2023/07/09 13:18:14;;;;;;;6.68;2.33;;;;;;;;;;10499124;28;20282;-74
2023/07/09 13:23:19;;;;;;;8.93;3.10;;;;;;;;;;10500220;28;20340;-75
2023/07/09 13:28:21;;;;;;;4.05;2.10;;;;;;;;;;10498896;28;20028;-74
2023/07/09 13:33:21;;;;;;;7.43;2.53;;;;;;;;;;10499247;28;20017;-74
2023/07/09 13:38:22;;;;;;;8.75;3.00;;;;;;;;;;10497842;28;20024;-73
2023/07/09 13:43:27;;;;;;;5.40;2.53;;;;;;;;;;10501793;28;20243;-74
2023/07/09 13:48:28;;;;;;;5.72;2.70;;;;;;;;;;10499558;28;20027;-74
2023/07/09 13:53:30;;;;;;;3.33;2.70;;;;;;;;;;10498536;28;20294;-73
2023/07/09 13:58:30;;;;;;;3.28;2.22;;;;;;;;;;10498342;28;20093;-74
2023/07/09 14:03:31;;;;;;;10.20;2.80;;;;;;;;;;10498443;28;20012;-73
2023/07/09 14:08:32;;;;;;;4.55;2.78;;;;;;;;;;10501590;28;20333;-72
2023/07/09 14:13:33;;;;;;;8.20;2.85;;;;;;;;;;10504578;28;20027;-74
2023/07/09 14:18:33;;;;;;;4.05;2.53;;;;;;;;;;10505689;28;20028;-73
2023/07/09 14:23:33;;;;;;;4.43;2.83;;;;;;;;;;10505394;28;20027;-73
2023/07/09 14:28:36;;;;;;;7.88;4.03;;;;;;;;;;10506048;28;20016;-73
2023/07/09 14:33:36;;;;;;;6.78;2.78;;;;;;;;;;10505191;28;20024;-73
2023/07/09 14:38:36;;;;;;;7.43;2.73;;;;;;;;;;10504601;28;20020;-73
2023/07/09 14:43:37;;;;;;;6.10;2.75;;;;;;;;;;10504703;28;20075;-72
2023/07/09 14:48:57;;;;;;;5.00;3.00;;;;;;;;;;10504328;28;20315;-73
2023/07/09 14:53:57;;;;;;;5.85;2.92;;;;;;;;;;10503626;28;20287;-74
2023/07/09 14:58:58;;;;;;;4.20;2.83;;;;;;;;;;10503663;28;20036;-72
2023/07/09 15:03:58;;;;;;;4.00;2.63;;;;;;;;;;10504083;28;20314;-73
2023/07/09 15:08:58;;;;;;;6.80;2.60;;;;;;;;;;10503709;28;20024;-72
2023/07/09 15:13:58;;;;;;;7.07;3.15;;;;;;;;;;10503277;28;20020;-73
2023/07/09 15:18:59;;;;;;;6.00;2.75;;;;;;;;;;10503134;28;20044;-73
2023/07/09 15:23:59;;;;;;;6.95;2.67;;;;;;;;;;10503103;28;20020;-73
2023/07/09 15:28:59;;;;;;;8.63;2.47;;;;;;;;;;10502938;28;20326;-72
2023/07/09 15:33:59;;;;;;;2.33;2.13;;;;;;;;;;10502211;28;20234;-73
2023/07/09 15:39:00;;;;;;;4.55;2.70;;;;;;;;;;10502901;28;20043;-73
2023/07/09 15:44:00;;;;;;;3.15;2.30;;;;;;;;;;10502398;28;20198;-74
2023/07/09 15:49:01;;;;;;;11.50;2.97;;;;;;;;;;10501845;28;20039;-73
2023/07/09 15:54:04;;;;;;;6.75;3.08;;;;;;;;;;10501449;28;20257;-73
2023/07/09 15:59:04;;;;;;;4.70;3.00;;;;;;;;;;10501683;28;20059;-73
2023/07/09 16:04:08;;;;;;;5.40;2.78;;;;;;;;;;10501174;28;20070;-73
2023/07/09 16:09:09;;;;;;;5.90;2.70;;;;;;;;;;10501363;28;20123;-73
2023/07/09 16:14:26;;;;;;;5.93;3.10;;;;;;;;;;10501751;28;20378;-73
2023/07/09 16:19:28;;;;;;;7.97;3.47;;;;;;;;;;10500520;28;20028;-73
2023/07/09 16:24:29;;;;;;;6.35;3.10;;;;;;;;;;10500718;28;20306;-74
2023/07/09 16:29:31;;;;;;;4.88;3.10;;;;;;;;;;10500306;28;20135;-73
2023/07/09 16:34:31;;;;;;;6.95;3.50;;;;;;;;;;10500097;28;20032;-74
2023/07/09 16:39:37;;;;;;;4.97;3.95;;;;;;;;;;10500428;28;20319;-73
2023/07/09 16:44:38;;;;;;;7.53;3.47;;;;;;;;;;10500096;28;20024;-74
2023/07/09 16:49:41;;;;;;;4.78;3.65;;;;;;;;;;10498764;28;20020;-74
2023/07/09 16:54:42;;;;;;;5.78;4.22;;;;;;;;;;10500476;28;20060;-74
2023/07/09 16:59:43;;;;;;;5.03;3.80;;;;;;;;;;10499610;28;20035;-74
2023/07/09 17:04:43;;;;;;;8.05;4.45;;;;;;;;;;10500634;28;20039;-74
2023/07/09 17:09:43;;;;;;;5.10;3.58;;;;;;;;;;10500394;28;20019;-74
2023/07/09 17:14:43;;;;;;;10.38;4.05;;;;;;;;;;10499361;28;20009;-74
2023/07/09 17:19:44;;;;;;;6.13;3.97;;;;;;;;;;10499522;28;20171;-74
2023/07/09 17:24:45;;;;;;;6.40;3.50;;;;;;;;;;10499179;28;20365;-74
2023/07/09 17:29:45;;;;;;;6.88;4.30;;;;;;;;;;10499363;28;20044;-73
2023/07/09 17:34:46;;;;;;;7.27;3.70;;;;;;;;;;10499318;28;20040;-74
2023/07/09 17:39:46;;;;;;;6.88;3.72;;;;;;;;;;10499669;28;20569;-74
2023/07/09 17:44:46;;;;;;;6.85;3.85;;;;;;;;;;10505125;28;20246;-74
2023/07/09 17:49:46;;;;;;;8.43;4.50;;;;;;;;;;10507024;28;20277;-72
2023/07/09 17:54:47;;;;;;;5.50;3.53;;;;;;;;;;10506186;28;20044;-74
2023/07/09 17:59:48;;;;;;;5.57;3.85;;;;;;;;;;10506389;28;20323;-75
2023/07/09 18:04:48;;;;;;;6.27;3.43;;;;;;;;;;10506149;28;20092;-73
2023/07/09 18:09:49;;;;;;;7.78;4.03;;;;;;;;;;10505929;28;20029;-73
2023/07/09 18:14:50;;;;;;;8.77;5.00;;;;;;;;;;10504483;28;20055;-73
2023/07/09 18:19:51;;;;;;;6.72;4.47;;;;;;;;;;10510648;28;20105;-73
2023/07/09 18:24:51;;;;;;;9.00;4.63;;;;;;;;;;10505274;28;20092;-74
2023/07/09 18:29:53;;;;;;;10.07;5.10;;;;;;;;;;10505343;28;20020;-73
2023/07/09 18:34:55;;;;;;;5.55;4.57;;;;;;;;;;10505081;28;20121;-74
2023/07/09 18:39:55;;;;;;;5.70;4.30;;;;;;;;;;10504953;28;20020;-74
2023/07/09 18:44:56;;;;;;;5.18;4.45;;;;;;;;;;10504500;28;20091;-73
2023/07/09 18:49:56;;;;;;;6.15;4.45;;;;;;;;;;10504428;28;20028;-73
2023/07/09 18:54:56;;;;;;;7.93;4.93;;;;;;;;;;10503317;28;20063;-73
2023/07/09 18:59:56;;;;;;;8.18;5.22;;;;;;;;;;10502902;28;20049;-72
2023/07/09 19:05:16;;;;;;;9.90;4.53;;;;;;;;;;10504156;28;20237;-73
2023/07/09 19:10:18;;;;;;;7.43;5.40;;;;;;;;;;10503413;28;20047;-74
2023/07/09 19:15:20;;;;;;;8.13;5.30;;;;;;;;;;10503304;28;20027;-73
2023/07/09 19:20:22;;;;;;;10.35;5.35;;;;;;;;;;10503814;28;20247;-73
2023/07/09 19:25:26;;;;;;;6.35;4.82;;;;;;;;;;10501811;28;20142;-72
2023/07/09 19:30:26;;;;;;;6.88;4.38;;;;;;;;;;10503350;28;20096;-73
2023/07/09 19:35:27;;;;;;;7.27;4.00;;;;;;;;;;10502471;28;20306;-73
2023/07/09 19:40:28;;;;;;;10.63;4.45;;;;;;;;;;10502405;28;20017;-74
2023/07/09 19:45:40;;;;;;;7.07;4.47;;;;;;;;;;10502215;28;20055;-73
2023/07/09 19:50:43;;;;;;;8.52;4.68;;;;;;;;;;10501853;28;20314;-73
2023/07/09 19:55:43;;;;;;;8.48;4.70;;;;;;;;;;10501612;28;20036;-73
2023/07/09 20:00:47;;;;;;;6.47;3.72;;;;;;;;;;10501266;28;20241;-73
2023/07/09 20:05:48;;;;;;;6.78;4.30;;;;;;;;;;10500695;28;20083;-73
2023/07/09 20:10:53;;;;;;;10.73;4.50;;;;;;;;;;10500999;28;20024;-73
2023/07/09 20:15:53;;;;;;;5.07;3.83;;;;;;;;;;10499855;28;20067;-73
2023/07/09 20:20:55;;;;;;;8.98;3.88;;;;;;;;;;10499535;28;20024;-74
2023/07/09 20:25:57;;;;;;;7.03;4.18;;;;;;;;;;10501788;28;20028;-73
2023/07/09 20:30:57;;;;;;;5.93;3.20;;;;;;;;;;10500662;28;20015;-73
2023/07/09 20:35:58;;;;;;;6.13;3.83;;;;;;;;;;10500398;28;20030;-74
2023/07/09 20:40:58;;;;;;;6.60;3.53;;;;;;;;;;10500114;28;20078;-73
2023/07/09 20:45:58;;;;;;;7.07;3.43;;;;;;;;;;10498995;28;20052;-73
2023/07/09 20:50:59;;;;;;;7.87;3.50;;;;;;;;;;10499806;28;20136;-72
2023/07/09 20:55:59;;;;;;;4.35;3.45;;;;;;;;;;10499699;28;20289;-73
2023/07/09 21:00:59;;;;;;;7.00;3.53;;;;;;;;;;10500122;28;20321;-74
2023/07/09 21:06:00;;;;;;;4.93;3.38;;;;;;;;;;10499691;28;20024;-74
2023/07/09 21:11:00;;;;;;;7.47;3.63;;;;;;;;;;10500040;28;20234;-73
2023/07/09 21:16:01;;;;;;;9.95;4.20;;;;;;;;;;10499271;28;20020;-73
2023/07/09 21:21:02;;;;;;;6.57;3.30;;;;;;;;;;10508164;28;20254;-73
2023/07/09 21:26:02;;;;;;;7.28;4.10;;;;;;;;;;10507638;28;20051;-73
2023/07/09 21:31:03;;;;;;;4.28;3.78;;;;;;;;;;10507357;28;20019;-74
2023/07/09 21:36:03;;;;;;;4.82;3.38;;;;;;;;;;10507527;28;20058;-73
2023/07/09 21:41:04;;;;;;;7.83;3.87;;;;;;;;;;10507339;28;20012;-73
2023/07/09 21:46:07;;;;;;;5.20;3.42;;;;;;;;;;10507212;28;20266;-73
2023/07/09 21:51:25;;;;;;;7.57;3.40;;;;;;;;;;10506775;28;20020;-73
2023/07/09 21:56:25;;;;;;;4.25;3.03;;;;;;;;;;10506888;28;20051;-73
2023/07/09 22:01:25;;;;;;;9.95;3.05;;;;;;;;;;10506759;28;20020;-73
2023/07/09 22:06:26;;;;;;;4.65;3.10;;;;;;;;;;10506412;28;20031;-73
2023/07/09 22:11:26;;;;;;;4.53;3.17;;;;;;;;;;10505846;28;20016;-72
2023/07/09 22:16:27;;;;;;;26.48;3.75;;;;;;;;;;10504178;28;20048;-72
2023/07/09 22:21:28;;;;;;;6.13;3.15;;;;;;;;;;10505553;28;20059;-73
2023/07/09 22:26:28;;;;;;;5.07;3.10;;;;;;;;;;10505709;28;20047;-73
2023/07/09 22:31:30;;;;;;;8.03;3.30;;;;;;;;;;10504343;28;20063;-73
2023/07/09 22:36:30;;;;;;;7.22;3.00;;;;;;;;;;10504901;28;20017;-72
2023/07/09 22:41:30;;;;;;;3.33;2.83;;;;;;;;;;10505809;28;20295;-73
2023/07/09 22:46:31;;;;;;;3.83;2.78;;;;;;;;;;10505009;28;20024;-74
2023/07/09 22:51:32;;;;;;;5.70;2.92;;;;;;;;;;10504414;28;20326;-73
2023/07/09 22:56:32;;;;;;;6.22;3.08;;;;;;;;;;10504309;28;20221;-73
2023/07/09 23:01:34;;;;;;;6.03;3.40;;;;;;;;;;10504572;28;20021;-73
2023/07/09 23:06:34;;;;;;;7.60;3.30;;;;;;;;;;10504202;28;20084;-74
2023/07/09 23:11:36;;;;;;;11.25;2.70;;;;;;;;;;10504015;28;20299;-74
2023/07/09 23:16:44;;;;;;;6.20;3.08;;;;;;;;;;10504071;28;20249;-73
2023/07/09 23:21:45;;;;;;;4.72;3.03;;;;;;;;;;10503613;28;20012;-73
2023/07/09 23:26:50;;;;;;;3.63;2.42;;;;;;;;;;10503243;28;20024;-72
2023/07/09 23:31:51;;;;;;;7.30;4.05;;;;;;;;;;10503225;28;20017;-72
2023/07/09 23:36:51;;;;;;;6.80;3.63;;;;;;;;;;10502802;28;20043;-72
2023/07/09 23:41:55;;;;;;;5.20;3.80;;;;;;;;;;10501334;28;20194;-73
2023/07/09 23:46:56;;;;;;;4.60;3.13;;;;;;;;;;10502469;28;20362;-73
2023/07/09 23:51:57;;;;;;;13.13;3.33;;;;;;;;;;10502344;28;20281;-73
2023/07/09 23:56:57;;;;;;;7.60;3.70;;;;;;;;;;10501655;28;20063;-73
